»·PEaware :: SWA127 KSJC-KSNA

SWA127 :: KSJC-KSNA

FLIGHT INFORMATION

Flight Status: Arrived
Operator:
Southwest Airlines
More flights by this operator :: More flights under this callsign
Pilot: Andrew C. (28419)
Aircraft: BOEING 737-800
(B738)
More flights by this aircraft type
Origin: KSJC Mineta San Jose Intl
United States
Destination: KSNA John Wayne-Orange Co
United States
More flights between these airports :: More routes between these airports
Route: TECKY3 EBAYE BURGL ELLBC OHSEA2
File this flight plan on PilotEdge
Remarks: RMK / SIMBRIEF
Altitude:
(Current/Filed)
35,000ft
Speed:
(Current/Filed)
460kts
Departed: 31-Jul-20 04:23 PM
Arrived: 31-Jul-20 05:21 PM
Distance/Time
Traveled:
297nm/0:58
Distance/Time
To Go:
Arrived

Flight Plot

Page will automatically refresh every two minutes.


Map Options




Map Legend


Flown Route
Filed Route
Departure Airport
Arrival Airport
Navaid (VOR, NDB)
Fix

Horizontal Profiles

Position Reports

Time Latitude Longitude Heading Altitude Ground
Speed
31-Jul-20 15:51 37.365008 -121.925325 48 53ft 0kts
31-Jul-20 15:52 37.365008 -121.925325 48 53ft 0kts
31-Jul-20 15:53 37.365008 -121.925325 48 53ft 0kts
31-Jul-20 15:54 37.365008 -121.925325 48 53ft 0kts
31-Jul-20 15:55 37.365008 -121.925325 48 53ft 0kts
31-Jul-20 15:56 37.365008 -121.925325 48 53ft 0kts
31-Jul-20 15:57 37.365008 -121.925325 48 53ft 0kts
31-Jul-20 15:58 37.365008 -121.925325 48 53ft 0kts
31-Jul-20 15:59 37.365008 -121.925325 48 53ft 0kts
31-Jul-20 16:00 37.365008 -121.925325 48 53ft 0kts
31-Jul-20 16:01 37.365008 -121.925325 48 53ft 0kts
31-Jul-20 16:02 37.365008 -121.925325 48 53ft 0kts
31-Jul-20 16:03 37.365008 -121.925325 48 53ft 0kts
31-Jul-20 16:04 37.365008 -121.925325 48 53ft 0kts
31-Jul-20 16:05 37.365008 -121.925325 48 53ft 0kts
31-Jul-20 16:06 37.365008 -121.925325 48 53ft 0kts
31-Jul-20 16:07 37.365008 -121.925325 48 53ft 0kts
31-Jul-20 16:08 37.365008 -121.925325 48 53ft 0kts
31-Jul-20 16:09 37.365008 -121.925325 48 53ft 0kts
31-Jul-20 16:10 37.365008 -121.925325 48 53ft 0kts
31-Jul-20 16:11 37.365008 -121.925325 48 53ft 0kts
31-Jul-20 16:12 37.365008 -121.925325 48 53ft 0kts
31-Jul-20 16:13 37.365008 -121.925325 48 53ft 0kts
31-Jul-20 16:14 37.364861 -121.925532 48 53ft 2kts
31-Jul-20 16:15 37.364716 -121.926219 119 53ft 2kts
31-Jul-20 16:16 37.364847 -121.926401 140 53ft 0kts
31-Jul-20 16:17 37.364847 -121.926401 140 53ft 0kts
31-Jul-20 16:18 37.362382 -121.923694 139 53ft 23kts
31-Jul-20 16:19 37.356204 -121.916928 139 53ft 33kts
31-Jul-20 16:20 37.353149 -121.914428 218 53ft 0kts
31-Jul-20 16:21 37.352489 -121.915306 250 53ft 8kts
31-Jul-20 16:22 37.371126 -121.936321 317 849ft 163kts
31-Jul-20 16:23 37.416580 -121.980764 346 2747ft 256kts
31-Jul-20 16:24 37.453444 -121.920366 119 5902ft 274kts
31-Jul-20 16:25 37.395312 -121.861052 136 9106ft 283kts
31-Jul-20 16:26 37.331773 -121.791542 142 11075ft 336kts
31-Jul-20 16:27 37.261282 -121.710247 138 14018ft 352kts
31-Jul-20 16:28 37.187350 -121.626720 140 16843ft 366kts
31-Jul-20 16:29 37.110043 -121.540530 140 19385ft 381kts
31-Jul-20 16:30 37.029572 -121.451115 142 21655ft 394kts
31-Jul-20 16:31 36.944841 -121.361132 142 23679ft 408kts
31-Jul-20 16:32 36.857273 -121.267991 143 25535ft 420kts
31-Jul-20 16:33 36.768053 -121.173279 143 27184ft 432kts
31-Jul-20 16:34 36.675487 -121.075294 144 28653ft 444kts
31-Jul-20 16:35 36.579916 -120.975236 145 30075ft 452kts
31-Jul-20 16:36 36.482899 -120.877135 145 31795ft 450kts
31-Jul-20 16:37 36.386320 -120.779296 145 33437ft 447kts
31-Jul-20 16:38 36.290319 -120.682196 145 34863ft 446kts
31-Jul-20 16:39 36.193362 -120.584423 145 34981ft 449kts
31-Jul-20 16:40 36.096780 -120.487292 145 34981ft 449kts
31-Jul-20 16:41 36.000075 -120.390373 145 34981ft 450kts
31-Jul-20 16:42 35.902653 -120.293025 145 34991ft 449kts
31-Jul-20 16:43 35.799508 -120.208667 152 34997ft 446kts
31-Jul-20 16:44 35.694015 -120.129747 157 34988ft 443kts
31-Jul-20 16:45 35.581316 -120.070817 162 34981ft 439kts
31-Jul-20 16:46 35.467523 -120.017345 163 34980ft 439kts
31-Jul-20 16:47 35.353627 -119.965032 163 34989ft 441kts
31-Jul-20 16:48 35.238759 -119.912694 163 34990ft 441kts
31-Jul-20 16:49 35.123766 -119.860537 163 34990ft 442kts
31-Jul-20 16:50 35.019558 -119.779744 139 34990ft 454kts
31-Jul-20 16:51 34.929488 -119.671604 138 34990ft 455kts
31-Jul-20 16:52 34.839933 -119.563713 138 34990ft 455kts
31-Jul-20 16:53 34.750022 -119.455701 138 34990ft 453kts
31-Jul-20 16:54 34.660322 -119.348285 138 34336ft 455kts
31-Jul-20 16:55 34.570504 -119.240966 138 33333ft 453kts
31-Jul-20 16:56 34.479928 -119.133019 139 30803ft 458kts
31-Jul-20 16:57 34.390059 -119.028790 139 28456ft 434kts
31-Jul-20 16:58 34.304342 -118.931139 138 26269ft 414kts
31-Jul-20 16:59 34.216027 -118.848429 157 24053ft 394kts
31-Jul-20 17:00 34.115742 -118.802350 162 21821ft 380kts
31-Jul-20 17:01 34.017458 -118.762742 163 19635ft 367kts
31-Jul-20 17:02 33.922323 -118.725739 163 17519ft 354kts
31-Jul-20 17:03 33.830136 -118.690155 164 15433ft 343kts
31-Jul-20 17:04 33.741243 -118.655932 164 13400ft 331kts
31-Jul-20 17:05 33.654548 -118.625422 166 11409ft 319kts
31-Jul-20 17:06 33.581734 -118.573765 134 10370ft 296kts
31-Jul-20 17:07 33.537076 -118.494199 122 9305ft 286kts
31-Jul-20 17:08 33.519966 -118.401426 91 7993ft 289kts
31-Jul-20 17:09 33.526353 -118.307292 69 6813ft 280kts
31-Jul-20 17:10 33.553611 -118.221659 67 5679ft 273kts
31-Jul-20 17:11 33.587420 -118.142147 54 5054ft 268kts
31-Jul-20 17:12 33.627845 -118.069666 54 5041ft 241kts
31-Jul-20 17:13 33.664307 -118.004290 54 5036ft 237kts
31-Jul-20 17:14 33.704064 -117.941056 32 5026ft 236kts
31-Jul-20 17:15 33.761653 -117.905012 24 4123ft 222kts
31-Jul-20 17:16 33.790092 -117.847849 113 2467ft 213kts
31-Jul-20 17:17 33.749079 -117.822235 199 1527ft 149kts
31-Jul-20 17:18 33.713542 -117.844798 208 843ft 139kts
31-Jul-20 17:19 33.678737 -117.866882 208 71ft 142kts
31-Jul-20 17:20 33.667566 -117.873000 77 66ft 2kts
31-Jul-20 17:21 33.669026 -117.871035 40 66ft 9kts
31-Jul-20 17:22 33.670747 -117.869251 40 66ft 7kts
31-Jul-20 17:23 33.674808 -117.866035 27 66ft 23kts
31-Jul-20 17:25 33.677383 -117.864226 125 66ft 0kts
31-Jul-20 17:26 33.677178 -117.863709 117 66ft 0kts
31-Jul-20 17:27 33.677178 -117.863709 117 66ft 0kts

Navigation Log

Ident Type
Flight plan parsing failed, navigation log unavailable